Time;durP1;ratioP1;P1;durP2;ratioP2;P2;SDS_P1;SDS_P2;PMS_P1;PMS_P2;Temp;Humidity;BMP_temperature;BMP_pressure;BME280_temperature;BME280_humidity;BME280_pressure;Samples;Min_cycle;Max_cycle;Signal;HPM_P1;HPM_P2
2022/07/14 00:01:19;;;;;;;1.10;0.73;;;;;;;25.91;36.45;95408.81;5043851;28;20029;-52
2022/07/14 00:03:44;;;;;;;1.83;0.80;;;;;;;25.88;36.49;95409.84;5040136;28;21394;-50
2022/07/14 00:06:10;;;;;;;2.45;1.33;;;;;;;25.88;36.39;95409.84;5040051;28;20052;-50
2022/07/14 00:08:36;;;;;;;2.08;0.90;;;;;;;25.88;36.64;95415.31;5044521;28;20032;-52
2022/07/14 00:11:02;;;;;;;1.55;1.08;;;;;;;25.88;36.48;95412.56;5043478;28;20025;-50
2022/07/14 00:13:28;;;;;;;2.15;1.25;;;;;;;25.86;36.75;95412.34;5044196;28;20090;-50
2022/07/14 00:15:53;;;;;;;1.83;0.98;;;;;;;25.85;36.56;95410.88;5041931;28;20154;-50
2022/07/14 00:18:19;;;;;;;1.45;0.90;;;;;;;25.85;36.61;95405.41;5044080;28;20017;-51
2022/07/14 00:20:45;;;;;;;1.48;1.02;;;;;;;25.84;36.76;95412.16;5045192;28;20053;-50
2022/07/14 00:23:10;;;;;;;1.83;0.90;;;;;;;25.83;36.65;95407.91;5042656;28;20029;-50
2022/07/14 00:25:36;;;;;;;1.95;1.00;;;;;;;25.83;36.80;95413.38;5044320;28;20383;-50
2022/07/14 00:28:02;;;;;;;1.80;0.90;;;;;;;25.82;36.65;95414.63;5044153;28;20064;-51
2022/07/14 00:30:27;;;;;;;2.10;1.02;;;;;;;25.83;36.91;95407.91;5042237;28;20032;-50
2022/07/14 00:32:54;;;;;;;1.73;0.90;;;;;;;25.81;36.92;95421.38;5043670;28;20032;-51
2022/07/14 00:35:21;;;;;;;1.80;1.05;;;;;;;25.81;37.02;95421.38;5038090;28;20634;-51
2022/07/14 00:37:46;;;;;;;2.45;1.05;;;;;;;25.79;36.53;95412.94;5019871;28;20025;-52
2022/07/14 00:40:12;;;;;;;1.85;0.95;;;;;;;25.77;36.40;95408.50;5051113;28;20037;-51
2022/07/14 00:42:39;;;;;;;1.83;1.05;;;;;;;25.78;36.97;95409.97;5038007;28;20052;-50
2022/07/14 00:45:07;;;;;;;2.00;1.08;;;;;;;25.79;37.00;95406.00;5043704;28;20045;-51
2022/07/14 00:47:33;;;;;;;2.28;1.10;;;;;;;25.79;36.63;95411.47;5038551;28;20847;-53
2022/07/14 00:49:58;;;;;;;1.48;0.82;;;;;;;25.76;36.74;95407.75;5036673;28;20530;-51
2022/07/14 00:52:25;;;;;;;1.48;1.10;;;;;;;25.76;37.02;95412.50;5038670;28;20021;-50
2022/07/14 00:54:50;;;;;;;2.25;1.00;;;;;;;25.70;37.22;95409.09;5044340;28;20021;-50
2022/07/14 00:57:16;;;;;;;1.35;0.90;;;;;;;25.75;36.91;95408.28;5017206;28;20669;-50
2022/07/14 00:59:41;;;;;;;1.92;1.20;;;;;;;25.75;36.77;95411.00;5038199;28;20047;-51
2022/07/14 01:02:07;;;;;;;3.10;1.00;;;;;;;25.73;36.79;95410.78;5036236;28;20036;-51
2022/07/14 01:04:32;;;;;;;2.03;1.02;;;;;;;25.72;36.92;95406.56;5043742;28;20025;-49
2022/07/14 01:06:58;;;;;;;2.72;1.02;;;;;;;25.72;36.85;95401.09;5043448;28;20044;-51
2022/07/14 01:09:23;;;;;;;1.98;1.27;;;;;;;25.71;36.84;95399.59;5043386;28;20029;-50
2022/07/14 01:11:49;;;;;;;1.40;0.90;;;;;;;25.71;36.99;95405.06;5036795;28;20735;-50
2022/07/14 01:14:14;;;;;;;1.88;0.90;;;;;;;25.71;36.96;95399.59;5038069;28;20422;-50
2022/07/14 01:16:40;;;;;;;2.20;1.00;;;;;;;25.69;37.05;95404.84;5009047;28;20021;-50
2022/07/14 01:19:05;;;;;;;1.83;1.00;;;;;;;25.67;37.27;95408.09;5044614;28;20021;-51
2022/07/14 01:21:30;;;;;;;3.05;1.00;;;;;;;25.64;37.20;95395.47;5043768;28;20017;-52
2022/07/14 01:23:56;;;;;;;2.90;1.17;;;;;;;25.67;37.39;95399.16;5042625;28;20495;-50
2022/07/14 01:26:21;;;;;;;1.90;1.00;;;;;;;25.65;37.36;95396.19;5043168;28;20388;-55
2022/07/14 01:28:47;;;;;;;2.08;1.20;;;;;;;25.65;37.58;95404.41;5043117;28;20112;-52
2022/07/14 01:31:12;;;;;;;2.08;1.13;;;;;;;25.64;37.39;95400.16;5043179;28;20037;-51
2022/07/14 01:33:38;;;;;;;3.13;1.50;;;;;;;25.61;37.74;95395.72;5025357;28;20069;-52
2022/07/14 01:36:03;;;;;;;2.30;1.20;;;;;;;25.62;37.50;95405.41;5041591;28;20428;-52
2022/07/14 01:38:29;;;;;;;2.63;1.15;;;;;;;25.62;37.60;95397.19;5043034;28;20063;-52
2022/07/14 01:40:55;;;;;;;2.20;1.40;;;;;;;25.60;37.70;95388.78;5043637;28;20026;-52
2022/07/14 01:43:20;;;;;;;2.35;1.27;;;;;;;25.59;37.62;95385.31;5042799;28;20029;-51
2022/07/14 01:45:46;;;;;;;1.60;1.30;;;;;;;25.53;37.87;95378.41;5042519;28;20368;-53
2022/07/14 01:48:11;;;;;;;2.03;1.15;;;;;;;25.55;37.87;95381.38;5043620;28;20024;-51
2022/07/14 01:50:37;;;;;;;1.90;1.20;;;;;;;25.58;38.01;95380.34;5042357;28;20036;-52
2022/07/14 01:53:02;;;;;;;2.40;1.40;;;;;;;25.56;38.00;95380.09;5039131;28;20095;-51
2022/07/14 01:55:28;;;;;;;2.28;1.42;;;;;;;25.57;38.11;95378.84;5040531;28;20057;-51
2022/07/14 01:57:53;;;;;;;3.42;1.60;;;;;;;25.56;37.96;95371.91;5040016;28;20051;-52
2022/07/14 02:00:19;;;;;;;4.05;2.38;;;;;;;25.53;38.02;95383.88;5032298;28;20440;-52
2022/07/14 02:02:44;;;;;;;4.53;1.75;;;;;;;25.41;38.17;95387.97;5020569;28;20033;-52
2022/07/14 02:05:10;;;;;;;3.75;1.90;;;;;;;25.44;37.86;95386.94;5042094;28;20121;-52
2022/07/14 02:07:36;;;;;;;4.38;1.67;;;;;;;25.39;37.97;95395.97;5041812;28;20021;-53
2022/07/14 02:12:45;;;;;;;3.97;1.92;;;;;;;25.30;37.96;95393.56;5041448;28;20066;-51
2022/07/14 02:15:11;;;;;;;3.63;1.70;;;;;;;25.27;38.01;95389.13;5042300;28;20025;-52
2022/07/14 02:17:37;;;;;;;3.75;1.70;;;;;;;25.28;37.92;95390.63;5023585;28;20024;-52
2022/07/14 02:20:02;;;;;;;5.13;1.80;;;;;;;25.25;37.92;95388.91;5039601;28;20063;-52
2022/07/14 02:22:28;;;;;;;4.07;1.65;;;;;;;25.22;38.13;95387.19;5036573;28;20483;-51
2022/07/14 02:24:54;;;;;;;4.05;1.88;;;;;;;25.23;37.96;95396.88;5041904;28;20032;-49
2022/07/14 02:27:19;;;;;;;3.35;1.70;;;;;;;25.18;38.11;95397.66;5041623;28;20675;-51
2022/07/14 02:29:45;;;;;;;3.38;1.77;;;;;;;25.15;38.25;95398.69;5041203;28;20082;-51
2022/07/14 02:32:10;;;;;;;3.38;1.65;;;;;;;25.08;38.28;95388.34;5041597;28;20526;-50
2022/07/14 02:34:36;;;;;;;2.42;1.83;;;;;;;25.11;38.34;95397.50;5034475;28;20045;-51
2022/07/14 02:37:01;;;;;;;4.22;1.65;;;;;;;25.07;38.42;95397.78;5040383;28;20024;-52
2022/07/14 02:39:26;;;;;;;2.33;1.80;;;;;;;25.07;38.60;95397.78;5041007;28;20124;-51
2022/07/14 02:41:52;;;;;;;3.50;1.50;;;;;;;25.04;38.49;95406.25;5041738;28;20028;-50
2022/07/14 02:44:17;;;;;;;3.50;1.60;;;;;;;25.03;38.38;95408.22;5041915;28;20573;-51
2022/07/14 02:46:43;;;;;;;2.60;1.58;;;;;;;24.87;38.39;95387.25;5018731;28;20047;-50
2022/07/14 02:49:08;;;;;;;4.70;1.67;;;;;;;24.97;38.62;95404.78;5006823;28;20044;-50
2022/07/14 02:51:34;;;;;;;2.70;1.50;;;;;;;24.93;38.87;95404.34;5040774;28;20036;-51
2022/07/14 02:53:59;;;;;;;3.17;1.70;;;;;;;24.90;38.91;95410.81;5043682;28;20017;-50
2022/07/14 02:56:25;;;;;;;3.13;1.60;;;;;;;24.89;38.66;95409.34;5041611;28;20029;-52
2022/07/14 02:58:50;;;;;;;3.42;1.67;;;;;;;24.87;38.91;95406.38;5038248;28;20049;-52
2022/07/14 03:01:17;;;;;;;2.95;1.50;;;;;;;24.86;39.13;95404.88;5042254;28;20566;-50
2022/07/14 03:03:42;;;;;;;2.72;1.30;;;;;;;24.81;38.94;95402.19;5042373;28;20029;-53
2022/07/14 03:06:15;;;;;;;2.90;1.85;;;;;;;24.82;39.00;95411.16;5029970;28;20051;-51
2022/07/14 03:08:41;;;;;;;4.13;1.80;;;;;;;24.82;39.04;95419.34;5033890;28;20085;-54
2022/07/14 03:11:07;;;;;;;3.78;1.65;;;;;;;24.79;39.08;95417.63;5026453;28;20129;-51
2022/07/14 03:13:32;;;;;;;2.40;1.50;;;;;;;24.76;38.96;95422.09;5046515;28;20095;-51
2022/07/14 03:15:58;;;;;;;2.92;1.40;;;;;;;24.76;39.09;95421.38;5032414;28;20021;-52
2022/07/14 03:18:24;;;;;;;3.92;1.70;;;;;;;24.71;39.21;95419.41;5047835;28;20108;-50
2022/07/14 03:20:51;;;;;;;2.85;1.55;;;;;;;24.69;39.11;95421.91;5041112;28;20036;-50
2022/07/14 03:23:17;;;;;;;2.67;1.65;;;;;;;24.72;39.01;95426.34;5021366;28;20037;-50
2022/07/14 03:25:43;;;;;;;3.60;1.52;;;;;;;24.69;39.19;95421.91;5039769;28;20404;-51
2022/07/14 03:28:08;;;;;;;1.80;1.60;;;;;;;24.68;39.14;95436.81;5045085;28;20503;-51
2022/07/14 03:30:34;;;;;;;3.90;1.38;;;;;;;24.61;39.21;95431.91;5042285;28;20029;-53
2022/07/14 03:32:59;;;;;;;4.88;1.60;;;;;;;24.64;39.39;95441.81;5041464;28;20404;-51
2022/07/14 03:35:25;;;;;;;3.33;1.60;;;;;;;24.64;39.27;95447.28;5037222;28;20048;-51
2022/07/14 03:37:50;;;;;;;5.68;2.13;;;;;;;24.63;39.27;95440.31;5045282;28;20032;-52
2022/07/14 03:40:15;;;;;;;3.80;1.52;;;;;;;24.61;39.20;95438.09;5041601;28;20477;-51
2022/07/14 03:42:41;;;;;;;2.95;1.50;;;;;;;24.61;39.54;95437.38;5036247;28;20388;-53
2022/07/14 03:45:07;;;;;;;4.35;1.63;;;;;;;24.58;39.62;95443.84;5034316;28;20078;-51
2022/07/14 03:47:32;;;;;;;3.40;1.60;;;;;;;24.50;39.41;95442.91;5044278;28;20021;-51
2022/07/14 03:49:58;;;;;;;3.33;1.38;;;;;;;24.57;39.42;95453.28;5032419;28;20033;-52
2022/07/14 03:52:24;;;;;;;3.55;1.73;;;;;;;24.55;39.67;95455.78;5041609;28;20029;-51
2022/07/14 03:54:49;;;;;;;3.40;1.70;;;;;;;24.56;39.54;95446.34;5044640;28;20040;-50
2022/07/14 03:57:15;;;;;;;2.85;1.75;;;;;;;24.53;39.57;95458.28;5029683;28;20447;-52
2022/07/14 03:59:40;;;;;;;3.17;1.58;;;;;;;24.54;39.49;95448.81;5042536;28;20033;-50
2022/07/14 04:02:10;;;;;;;3.20;1.63;;;;;;;24.45;39.52;95440.94;5043910;28;20096;-51
2022/07/14 04:04:35;;;;;;;3.00;1.60;;;;;;;24.51;39.93;95444.38;5020778;28;20111;-51
2022/07/14 04:07:01;;;;;;;2.35;1.60;;;;;;;24.50;39.53;95437.44;5033898;28;20041;-51
2022/07/14 04:09:26;;;;;;;2.60;1.48;;;;;;;24.49;40.01;95438.69;5041932;28;20432;-51
2022/07/14 04:11:52;;;;;;;3.38;1.70;;;;;;;24.48;40.15;95450.84;5034393;28;20028;-51
2022/07/14 04:14:17;;;;;;;2.63;1.73;;;;;;;24.48;39.84;95453.56;5043800;28;20032;-50
2022/07/14 04:16:42;;;;;;;4.28;1.70;;;;;;;24.50;39.65;95445.66;5033076;28;20032;-50
2022/07/14 04:19:08;;;;;;;3.15;1.65;;;;;;;24.50;39.81;95448.38;5043704;28;20032;-52
2022/07/14 04:21:37;;;;;;;3.88;1.80;;;;;;;24.46;39.56;95453.34;5042494;28;20032;-52
2022/07/14 04:24:03;;;;;;;4.00;1.80;;;;;;;24.48;39.78;95461.78;5044005;28;20032;-51
2022/07/14 04:26:29;;;;;;;2.95;1.80;;;;;;;24.48;40.09;95467.22;5030113;28;20024;-51
2022/07/14 04:28:54;;;;;;;2.95;1.77;;;;;;;24.40;40.12;95456.09;5033169;28;20415;-52
2022/07/14 04:31:20;;;;;;;3.28;1.90;;;;;;;24.33;39.53;95446.97;5042432;28;20045;-51
2022/07/14 04:33:46;;;;;;;2.33;1.90;;;;;;;24.31;40.22;95461.09;5042714;28;20131;-51
2022/07/14 04:36:11;;;;;;;5.38;2.10;;;;;;;24.28;39.98;95470.28;5042996;28;20033;-50
2022/07/14 04:38:37;;;;;;;3.20;2.35;;;;;;;24.24;39.88;95475.25;5039962;28;20013;-51
2022/07/14 04:41:02;;;;;;;4.68;2.88;;;;;;;24.22;40.13;95466.84;5038887;28;20120;-52
2022/07/14 04:43:28;;;;;;;5.57;2.80;;;;;;;24.21;40.39;95470.81;5041476;28;20041;-51
2022/07/14 04:45:53;;;;;;;3.17;2.40;;;;;;;24.13;40.30;95464.41;5042201;28;20090;-52
2022/07/14 04:48:19;;;;;;;4.63;2.30;;;;;;;24.22;40.00;95477.03;5025349;28;20029;-51
2022/07/14 04:53:28;;;;;;;6.97;2.65;;;;;;;24.31;39.85;95479.47;5044065;28;20120;-51
2022/07/14 04:55:54;;;;;;;3.28;2.17;;;;;;;24.39;39.31;95473.75;5043863;28;20187;-51
2022/07/14 04:58:20;;;;;;;3.83;2.42;;;;;;;24.43;39.21;95476.19;5038767;28;20046;-50
2022/07/14 05:00:45;;;;;;;4.25;2.50;;;;;;;24.56;39.43;95473.66;5024872;28;20048;-50
2022/07/14 05:03:11;;;;;;;6.40;2.60;;;;;;;24.66;39.37;95472.09;5038201;28;20455;-51
2022/07/14 05:05:36;;;;;;;3.70;2.28;;;;;;;24.71;38.92;95468.56;5043104;28;20029;-51
2022/07/14 05:08:02;;;;;;;4.60;2.33;;;;;;;24.84;39.11;95472.97;5037216;28;20029;-52
2022/07/14 05:10:27;;;;;;;4.90;2.20;;;;;;;24.94;39.05;95471.38;5043696;28;20021;-52
2022/07/14 05:12:53;;;;;;;3.13;2.13;;;;;;;25.04;38.81;95480.78;5043644;28;20628;-51
2022/07/14 05:15:18;;;;;;;5.65;2.25;;;;;;;25.14;38.58;95473.75;5042247;28;20033;-51
2022/07/14 05:17:44;;;;;;;6.40;2.53;;;;;;;25.24;38.37;95479.63;5042767;28;20442;-51
2022/07/14 05:20:10;;;;;;;6.25;2.50;;;;;;;25.30;38.15;95481.06;5043113;28;20423;-51
2022/07/14 05:22:37;;;;;;;3.80;2.38;;;;;;;25.47;38.02;95473.44;5009078;28;20033;-51
2022/07/14 05:25:12;;;;;;;5.20;2.45;;;;;;;25.59;37.52;95472.06;5043151;28;20029;-51
2022/07/14 05:27:38;;;;;;;6.40;2.70;;;;;;;25.61;37.56;95462.09;5041021;28;20527;-52
2022/07/14 05:30:07;;;;;;;5.85;2.70;;;;;;;25.77;37.48;95468.69;5043088;28;20079;-51
2022/07/14 05:32:33;;;;;;;6.25;2.65;;;;;;;25.77;37.52;95463.22;5043267;28;20053;-51
2022/07/14 05:34:58;;;;;;;5.80;2.60;;;;;;;25.87;37.41;95474.06;5025906;28;20616;-51
2022/07/14 05:37:24;;;;;;;3.97;2.53;;;;;;;25.99;36.79;95480.88;5037167;28;20673;-50
2022/07/14 05:39:50;;;;;;;4.32;2.40;;;;;;;26.07;37.00;95478.28;5043280;28;20044;-51
2022/07/14 05:42:18;;;;;;;5.03;2.40;;;;;;;26.10;37.22;95486.22;5043451;28;20788;-53
2022/07/14 05:44:44;;;;;;;7.78;2.70;;;;;;;26.12;37.32;95486.44;5024960;28;20138;-53
2022/07/14 05:47:09;;;;;;;5.40;2.45;;;;;;;26.21;37.03;95475.13;5023429;28;20028;-51
2022/07/14 05:49:39;;;;;;;5.90;2.50;;;;;;;26.28;36.72;95475.31;5031845;28;20029;-50
2022/07/14 05:52:05;;;;;;;7.05;2.65;;;;;;;26.39;36.71;95474.44;5043903;28;20041;-51
2022/07/14 05:54:31;;;;;;;3.42;2.30;;;;;;;26.49;36.34;95472.81;5044210;28;20025;-52
2022/07/14 05:56:56;;;;;;;5.03;2.28;;;;;;;26.49;36.50;95467.34;5044414;28;20032;-52
2022/07/14 05:59:22;;;;;;;6.35;2.60;;;;;;;26.53;36.64;95473.22;5041782;28;20048;-52
2022/07/14 06:01:48;;;;;;;5.40;2.80;;;;;;;26.62;36.69;95470.13;5042803;28;20049;-53
2022/07/14 06:04:14;;;;;;;4.57;2.10;;;;;;;26.70;36.42;95465.53;5043537;28;20029;-53
2022/07/14 06:06:46;;;;;;;5.60;2.42;;;;;;;26.75;36.08;95461.97;5034484;28;20488;-52
2022/07/14 06:09:17;;;;;;;4.20;2.25;;;;;;;26.40;35.97;95410.19;5038228;28;20177;-47
2022/07/14 06:11:45;;;;;;;3.60;2.22;;;;;;;26.83;35.73;95464.34;5041283;28;20763;-47
2022/07/14 06:14:14;;;;;;;3.33;2.10;;;;;;;26.97;35.83;95463.13;5041886;28;20684;-48
2022/07/14 06:16:40;;;;;;;3.70;2.20;;;;;;;26.95;35.65;95454.72;5033368;28;20475;-47
2022/07/14 06:19:07;;;;;;;5.40;2.50;;;;;;;27.02;35.55;95459.56;5004360;28;20033;-48
2022/07/14 06:21:34;;;;;;;5.15;2.60;;;;;;;26.78;35.68;95412.34;5040172;28;20842;-48
2022/07/14 06:24:02;;;;;;;4.60;2.10;;;;;;;27.10;35.36;95449.47;5042214;28;20466;-49
2022/07/14 06:26:28;;;;;;;5.28;2.45;;;;;;;27.17;35.21;95454.34;5042340;28;20920;-48
2022/07/14 06:28:55;;;;;;;4.35;2.30;;;;;;;27.21;35.20;95449.28;5039291;28;20040;-48
2022/07/14 06:31:20;;;;;;;3.13;2.00;;;;;;;27.26;35.02;95445.72;5041719;28;20653;-49
2022/07/14 06:33:46;;;;;;;2.60;1.88;;;;;;;27.32;35.33;95444.38;5042217;28;20082;-49
2022/07/14 06:36:12;;;;;;;4.85;2.35;;;;;;;27.42;34.68;95445.41;5040766;28;20059;-48
2022/07/14 06:38:38;;;;;;;8.70;3.05;;;;;;;27.51;34.47;95452.53;5030455;28;20052;-49
2022/07/14 06:41:05;;;;;;;7.03;2.10;;;;;;;27.57;34.66;95453.91;5039272;28;20492;-48
2022/07/14 06:43:32;;;;;;;5.72;1.80;;;;;;;27.57;34.68;95447.69;5023813;28;20033;-50
2022/07/14 06:45:58;;;;;;;3.55;1.80;;;;;;;27.66;34.31;95445.25;5045071;28;20412;-49
2022/07/14 06:48:26;;;;;;;5.25;2.30;;;;;;;27.75;34.08;95448.31;5035171;28;20463;-49
2022/07/14 06:50:52;;;;;;;6.88;2.10;;;;;;;27.75;33.28;95442.84;5045654;28;20424;-49
2022/07/14 06:53:19;;;;;;;3.70;1.73;;;;;;;27.82;33.31;95439.47;5045703;28;20463;-49
2022/07/14 06:55:46;;;;;;;3.75;1.70;;;;;;;27.85;33.58;95440.44;5031667;28;20518;-50
2022/07/14 06:58:12;;;;;;;4.60;1.90;;;;;;;27.91;33.75;95436.28;5034267;28;20563;-49
2022/07/14 07:00:37;;;;;;;4.32;1.90;;;;;;;27.91;33.63;95427.31;5036448;28;20028;-50
2022/07/14 07:03:10;;;;;;;5.65;1.88;;;;;;;28.04;33.46;95436.28;5045735;28;20044;-48
2022/07/14 07:08:23;;;;;;;2.67;1.55;;;;;;;28.01;33.67;95426.38;5045789;28;20579;-49
2022/07/14 07:10:49;;;;;;;4.95;1.70;;;;;;;28.06;33.11;95422.75;5043077;28;20568;-50
2022/07/14 07:13:16;;;;;;;3.53;1.63;;;;;;;28.09;33.04;95421.72;5034660;28;20499;-49
2022/07/14 07:15:44;;;;;;;6.93;2.60;;;;;;;28.17;33.64;95428.03;5044384;28;20565;-49
2022/07/14 07:18:10;;;;;;;9.23;2.10;;;;;;;28.22;32.97;95424.47;5040825;28;20799;-50
2022/07/14 07:20:36;;;;;;;6.10;1.90;;;;;;;28.24;33.46;95427.41;5032334;28;20017;-48
2022/07/14 07:23:03;;;;;;;5.88;1.70;;;;;;;28.32;33.36;95428.22;5045503;28;20641;-49
2022/07/14 07:25:29;;;;;;;4.72;1.88;;;;;;;28.37;32.63;95424.63;5030322;28;20486;-49
2022/07/14 07:27:55;;;;;;;4.57;1.58;;;;;;;28.39;33.01;95422.09;5033902;28;20563;-49
2022/07/14 07:30:21;;;;;;;4.28;1.75;;;;;;;28.47;33.10;95428.41;5043780;28;20570;-49
2022/07/14 07:32:47;;;;;;;5.20;1.90;;;;;;;28.52;32.77;95430.28;5040734;28;20017;-49
2022/07/14 07:35:13;;;;;;;3.72;1.40;;;;;;;28.58;32.38;95423.41;5045528;28;20487;-49
2022/07/14 07:37:39;;;;;;;5.50;1.65;;;;;;;28.58;33.02;95420.66;5045302;28;20550;-49
2022/07/14 07:40:06;;;;;;;5.68;1.65;;;;;;;28.60;32.51;95420.13;5043275;28;20039;-50
2022/07/14 07:42:32;;;;;;;3.75;1.50;;;;;;;28.63;32.90;95419.06;5043732;28;20506;-49
2022/07/14 07:45:00;;;;;;;3.15;1.45;;;;;;;28.65;32.00;95422.00;5044480;28;20878;-49
2022/07/14 07:47:26;;;;;;;3.55;1.40;;;;;;;28.70;32.63;95418.41;5041921;28;20158;-50
2022/07/14 07:49:53;;;;;;;5.85;1.50;;;;;;;28.76;32.85;95417.75;5043053;28;20024;-50
2022/07/14 07:52:19;;;;;;;4.90;1.70;;;;;;;28.76;32.64;95412.25;5008031;28;20635;-50
2022/07/14 07:54:46;;;;;;;5.18;1.40;;;;;;;28.80;31.94;95418.16;5040850;28;20560;-49
2022/07/14 07:57:12;;;;;;;3.25;1.50;;;;;;;28.93;31.76;95415.34;5043155;28;20085;-49
2022/07/14 07:59:40;;;;;;;3.40;1.45;;;;;;;29.15;31.39;95409.31;5045015;28;20485;-49
2022/07/14 08:02:06;;;;;;;5.32;1.60;;;;;;;29.06;31.59;95407.03;5032291;28;20472;-50
2022/07/14 08:04:33;;;;;;;3.65;1.65;;;;;;;28.80;31.19;95365.94;5036586;28;20601;-49
2022/07/14 08:07:00;;;;;;;2.30;1.17;;;;;;;28.98;31.56;95406.22;5044899;28;20511;-49
2022/07/14 08:09:26;;;;;;;4.65;1.42;;;;;;;28.98;31.86;95405.47;5043721;28;20395;-48
2022/07/14 08:11:53;;;;;;;2.42;1.40;;;;;;;28.99;32.11;95395.97;5042896;28;20618;-49
2022/07/14 08:17:03;;;;;;;4.43;1.30;;;;;;;29.03;31.93;95399.84;5039836;28;20032;-51
2022/07/14 08:19:29;;;;;;;5.22;1.67;;;;;;;29.05;31.39;95389.03;5039053;28;20041;-49
2022/07/14 08:21:54;;;;;;;4.93;1.40;;;;;;;29.06;30.92;95390.53;5036543;28;20029;-49
2022/07/14 08:24:20;;;;;;;4.03;0.98;;;;;;;29.04;31.38;95393.06;5036214;28;20033;-49
2022/07/14 08:26:50;;;;;;;2.85;1.50;;;;;;;29.12;30.99;95393.88;5042608;28;20029;-48
2022/07/14 08:29:16;;;;;;;2.50;1.23;;;;;;;29.13;31.00;95384.34;5040747;28;20475;-49
2022/07/14 08:31:43;;;;;;;1.50;0.90;;;;;;;29.16;31.25;95388.75;5044796;28;20031;-49
2022/07/14 08:34:09;;;;;;;3.38;1.10;;;;;;;29.24;31.33;95389.59;5042820;28;20649;-49
2022/07/14 08:36:35;;;;;;;3.75;1.35;;;;;;;29.33;31.07;95386.38;5044444;28;20094;-49
2022/07/14 08:39:05;;;;;;;3.65;1.33;;;;;;;29.40;30.57;95374.66;5044522;28;20021;-50
2022/07/14 08:41:34;;;;;;;2.38;1.33;;;;;;;29.37;30.81;95375.72;5034990;28;20740;-49
2022/07/14 08:44:00;;;;;;;2.60;1.35;;;;;;;29.42;30.20;95367.34;5031451;28;20701;-49
2022/07/14 08:46:27;;;;;;;1.85;1.20;;;;;;;29.43;30.66;95373.56;5042735;28;20544;-49
2022/07/14 08:48:53;;;;;;;6.53;1.63;;;;;;;29.38;30.63;95372.44;5034311;28;20903;-49
2022/07/14 08:51:26;;;;;;;3.17;1.40;;;;;;;29.39;30.72;95370.44;5041085;28;22130;-49
2022/07/14 08:53:52;;;;;;;4.68;1.25;;;;;;;29.38;30.91;95366.22;5042225;28;20144;-48
2022/07/14 08:56:19;;;;;;;4.40;1.35;;;;;;;29.48;30.86;95375.47;5042858;28;20048;-50
2022/07/14 08:58:45;;;;;;;5.43;1.23;;;;;;;29.55;30.56;95358.25;5035898;28;21212;-48
2022/07/14 09:01:11;;;;;;;5.03;1.20;;;;;;;29.47;30.47;95363.69;5033324;28;20036;-49
2022/07/14 09:03:37;;;;;;;2.83;1.45;;;;;;;29.45;29.94;95366.25;5035903;28;20490;-49
2022/07/14 09:06:07;;;;;;;3.58;1.23;;;;;;;29.43;30.44;95362.56;5043665;28;20671;-50
2022/07/14 09:08:53;;;;;;;;;;;;;;;29.66;30.12;95368.97;5043999;28;20841;-49
2022/07/14 09:11:20;;;;;;;4.07;1.13;;;;;;;29.54;30.36;95356.78;5043123;28;20375;-50
2022/07/14 09:13:46;;;;;;;3.03;1.30;;;;;;;29.50;30.22;95348.84;5042960;28;20565;-50
2022/07/14 09:16:14;;;;;;;3.08;1.05;;;;;;;29.53;30.43;95355.31;5043915;28;20877;-50
2022/07/14 09:18:41;;;;;;;1.50;0.80;;;;;;;29.54;30.07;95351.28;5039522;28;20186;-49
2022/07/14 09:21:18;;;;;;;3.00;1.10;;;;;;;29.60;30.02;95343.59;5032014;28;20504;-49
2022/07/14 09:23:44;;;;;;;2.38;0.90;;;;;;;29.58;30.30;95340.63;5043570;28;21548;-49
2022/07/14 09:26:18;;;;;;;2.60;1.05;;;;;;;29.62;30.18;95339.00;5043370;28;20676;-49
2022/07/14 09:28:45;;;;;;;3.75;1.27;;;;;;;29.64;29.77;95332.97;5043578;28;20484;-50
2022/07/14 09:31:25;;;;;;;1.73;1.00;;;;;;;29.67;30.19;95344.38;5031369;28;20519;-50
2022/07/14 09:33:52;;;;;;;3.55;0.98;;;;;;;29.75;29.26;95334.13;5043487;28;20676;-49
2022/07/14 09:36:31;;;;;;;3.75;1.00;;;;;;;29.74;29.64;95338.16;5042720;28;20543;-50
2022/07/14 09:39:05;;;;;;;3.47;1.13;;;;;;;29.74;30.14;95338.16;5024382;28;20471;-48
2022/07/14 09:41:32;;;;;;;3.15;1.00;;;;;;;29.76;29.89;95332.84;5025381;28;20028;-49
2022/07/14 09:44:17;;;;;;;2.22;0.90;;;;;;;29.80;29.48;95336.00;5025730;28;20850;-48
2022/07/14 09:46:47;;;;;;;1.55;0.80;;;;;;;29.75;29.26;95323.09;5042255;28;20845;-49
2022/07/14 09:49:13;;;;;;;4.00;1.35;;;;;;;29.87;28.93;95324.28;5042494;28;20655;-49
2022/07/14 09:51:57;;;;;;;4.45;1.00;;;;;;;29.93;29.00;95321.38;5043557;28;20033;-49
2022/07/14 09:54:46;;;;;;;3.53;0.90;;;;;;;29.91;29.18;95324.69;5036616;28;20727;-49
2022/07/14 09:57:15;;;;;;;2.10;1.00;;;;;;;29.88;29.36;95325.78;5028418;28;20514;-49
2022/07/14 09:59:56;;;;;;;2.17;0.90;;;;;;;29.96;29.17;95326.53;5036562;28;20514;-49
2022/07/14 10:02:26;;;;;;;2.83;1.00;;;;;;;29.93;29.06;95327.63;5042639;28;20480;-50
2022/07/14 10:04:54;;;;;;;3.05;1.10;;;;;;;29.99;29.52;95316.44;5043206;28;20533;-49
2022/07/14 10:07:20;;;;;;;2.17;1.05;;;;;;;29.97;29.55;95319.75;5043104;28;20529;-49
2022/07/14 10:09:59;;;;;;;3.60;0.90;;;;;;;30.02;28.88;95315.34;5034969;28;20070;-49
2022/07/14 10:12:26;;;;;;;3.50;0.98;;;;;;;30.06;28.12;95308.22;5040753;28;20108;-49
2022/07/14 10:14:52;;;;;;;2.28;0.98;;;;;;;30.07;28.32;95304.16;5042304;28;20425;-49
2022/07/14 10:17:19;;;;;;;2.80;1.00;;;;;;;30.03;28.54;95303.78;5042597;28;20528;-49
2022/07/14 10:19:45;;;;;;;2.00;1.02;;;;;;;30.02;28.78;95313.31;5032773;28;20537;-48
2022/07/14 10:22:11;;;;;;;2.85;0.88;;;;;;;30.06;28.72;95299.94;5042729;28;20033;-49
2022/07/14 10:24:37;;;;;;;3.40;0.90;;;;;;;30.05;28.67;95306.72;5042756;28;20391;-49
2022/07/14 10:27:02;;;;;;;1.40;0.98;;;;;;;30.12;28.63;95300.50;5005098;28;20102;-50
2022/07/14 10:29:28;;;;;;;4.68;1.10;;;;;;;30.16;28.87;95300.88;5033062;28;20033;-49
2022/07/14 10:32:03;;;;;;;2.30;0.82;;;;;;;30.13;29.30;95290.94;5042255;28;20023;-49
2022/07/14 10:35:03;;;;;;;2.35;0.90;;;;;;;30.21;29.10;95291.72;5032035;28;20533;-49
2022/07/14 10:37:41;;;;;;;2.65;0.98;;;;;;;30.19;29.16;95294.25;5040377;28;20472;-49
2022/07/14 10:40:15;;;;;;;3.45;1.23;;;;;;;30.24;28.52;95290.63;5041950;28;20464;-48
2022/07/14 10:43:14;;;;;;;3.38;1.10;;;;;;;30.23;28.54;95284.34;5042636;28;20439;-50
2022/07/14 10:45:54;;;;;;;2.80;0.90;;;;;;;30.26;28.66;95288.78;5027149;28;20480;-51
2022/07/14 10:48:33;;;;;;;3.53;0.90;;;;;;;30.20;28.90;95273.69;5041854;28;20535;-50
2022/07/14 10:51:14;;;;;;;2.45;0.75;;;;;;;30.03;28.98;95242.44;5042075;28;20791;-51
2022/07/14 10:54:00;;;;;;;2.78;1.00;;;;;;;30.33;29.17;95270.78;5042553;28;20507;-49
2022/07/14 10:56:26;;;;;;;2.25;0.90;;;;;;;30.33;28.90;95281.81;5035432;28;20495;-50
2022/07/14 10:59:28;;;;;;;2.08;1.10;;;;;;;30.46;28.79;95274.13;5039451;28;20500;-48
2022/07/14 11:02:12;;;;;;;2.47;1.02;;;;;;;30.53;28.22;95261.66;5021659;28;20487;-49
2022/07/14 11:04:59;;;;;;;2.90;0.90;;;;;;;30.47;28.74;95259.06;5041973;28;20565;-50
2022/07/14 11:07:47;;;;;;;2.40;1.00;;;;;;;30.48;28.58;95255.03;5039993;28;20510;-49
2022/07/14 11:10:21;;;;;;;2.55;1.13;;;;;;;30.50;29.07;95262.75;5035740;28;20468;-49
2022/07/14 11:13:04;;;;;;;2.22;1.00;;;;;;;30.55;28.86;95254.28;5031708;28;20476;-50
2022/07/14 11:15:43;;;;;;;1.95;0.98;;;;;;;30.53;28.46;95250.63;5031793;28;20491;-49
2022/07/14 11:18:21;;;;;;;3.20;1.00;;;;;;;30.58;28.65;95257.97;5015839;28;20634;-49
2022/07/14 11:21:03;;;;;;;1.90;1.00;;;;;;;30.50;28.25;95251.72;5038358;28;20460;-48
2022/07/14 11:23:49;;;;;;;2.65;0.90;;;;;;;30.52;28.71;95254.66;5037438;28;20488;-48
2022/07/14 11:26:38;;;;;;;1.67;1.10;;;;;;;30.55;28.60;95253.56;5041806;28;20472;-49
2022/07/14 11:29:04;;;;;;;1.97;1.10;;;;;;;30.49;28.50;95261.25;5040415;28;20509;-50
2022/07/14 11:31:44;;;;;;;3.05;1.10;;;;;;;30.57;29.02;95245.47;5043333;28;20733;-50
2022/07/14 11:37:04;;;;;;;4.03;0.98;;;;;;;30.63;28.31;95237.72;5036291;28;20056;-48
2022/07/14 11:39:36;;;;;;;2.92;1.10;;;;;;;30.65;28.51;95237.94;5039900;28;20654;-49
2022/07/14 11:42:06;;;;;;;3.03;1.45;;;;;;;30.58;28.66;95241.41;5040394;28;20395;-49
2022/07/14 11:44:35;;;;;;;2.25;1.05;;;;;;;30.62;28.62;95247.31;5029909;28;20472;-48
2022/07/14 11:47:24;;;;;;;1.90;1.00;;;;;;;30.63;28.79;95237.72;5045347;28;20557;-49
2022/07/14 11:49:54;;;;;;;2.40;0.90;;;;;;;30.64;28.60;95239.22;5038392;28;20226;-49
2022/07/14 11:52:36;;;;;;;2.80;1.00;;;;;;;30.66;28.56;95238.09;5037079;28;20660;-47